createdAt,value
2019-02-27T00:00:20.651Z,4.10
2019-02-27T00:02:49.125Z,4.00
2019-02-27T00:05:17.554Z,4.00
2019-02-27T00:07:45.976Z,4.00
2019-02-27T00:10:14.655Z,4.10
2019-02-27T00:12:43.171Z,4.00
2019-02-27T00:15:11.955Z,4.00
2019-02-27T00:17:40.364Z,4.00
2019-02-27T00:20:08.850Z,4.00
2019-02-27T00:22:37.355Z,4.00
2019-02-27T00:25:06.191Z,4.00
2019-02-27T00:27:34.631Z,3.90
2019-02-27T00:30:05.594Z,3.90
2019-02-27T00:32:33.211Z,3.40
2019-02-27T00:35:06.493Z,3.20
2019-02-27T00:37:31.774Z,3.50
2019-02-27T00:40:00.281Z,3.50
2019-02-27T00:42:33.561Z,3.30
2019-02-27T00:44:58.924Z,3.30
2019-02-27T00:47:27.334Z,3.40
2019-02-27T00:49:55.803Z,3.40
2019-02-27T00:52:24.222Z,3.50
2019-02-27T00:54:52.775Z,3.60
2019-02-27T00:57:21.438Z,3.60
2019-02-27T00:59:49.897Z,3.60
2019-02-27T01:02:20.280Z,3.70
2019-02-27T01:04:48.467Z,3.70
2019-02-27T01:07:20.253Z,3.70
2019-02-27T01:09:47.353Z,3.70
2019-02-27T01:12:15.763Z,3.60
2019-02-27T01:14:44.177Z,3.60
2019-02-27T01:17:12.607Z,3.60
2019-02-27T01:19:42.726Z,3.60
2019-02-27T01:22:11.176Z,3.40
2019-02-27T01:24:39.626Z,3.40
2019-02-27T01:27:08.072Z,3.50
2019-02-27T01:29:36.488Z,3.40
2019-02-27T01:32:05.063Z,3.50
2019-02-27T01:34:33.494Z,3.50
2019-02-27T01:37:01.967Z,3.40
2019-02-27T01:39:30.391Z,3.40
2019-02-27T01:41:58.795Z,3.40
2019-02-27T01:44:27.403Z,3.30
2019-02-27T01:46:55.815Z,3.30
2019-02-27T01:49:24.227Z,2.90
2019-02-27T01:51:52.651Z,2.80
2019-02-27T01:54:21.077Z,3.00
2019-02-27T01:56:49.507Z,3.10
2019-02-27T01:59:17.922Z,3.10
2019-02-27T02:01:46.331Z,3.00
2019-02-27T02:04:14.755Z,2.80
2019-02-27T02:06:43.331Z,2.90
2019-02-27T02:09:37.471Z,3.00
2019-02-27T02:12:08.996Z,3.10
2019-02-27T02:15:09.251Z,3.00
2019-02-27T02:18:06.642Z,3.10
2019-02-27T02:20:50.402Z,3.10
2019-02-27T02:23:22.010Z,3.00
2019-02-27T02:26:11.675Z,3.10
2019-02-27T02:28:48.851Z,3.10
2019-02-27T02:31:26.470Z,3.00
2019-02-27T02:34:23.627Z,3.00
2019-02-27T02:37:10.167Z,3.00
2019-02-27T02:39:54.294Z,3.00
2019-02-27T02:42:24.569Z,2.90
2019-02-27T02:45:20.516Z,2.90
2019-02-27T02:47:57.596Z,2.90
2019-02-27T02:50:37.846Z,2.90
2019-02-27T02:53:25.378Z,2.70
2019-02-27T02:56:03.187Z,2.70
2019-02-27T02:58:34.726Z,2.70
2019-02-27T03:01:06.268Z,2.80
2019-02-27T03:03:55.811Z,2.80
2019-02-27T03:06:36.426Z,2.80
2019-02-27T03:09:30.219Z,2.80
2019-02-27T03:12:01.432Z,2.80
2019-02-27T03:14:42.031Z,2.70
2019-02-27T03:17:29.877Z,2.70
2019-02-27T03:20:19.665Z,2.70
2019-02-27T03:22:59.975Z,2.70
2019-02-27T03:25:40.310Z,2.70
2019-02-27T03:28:19.256Z,2.70
2019-02-27T03:30:53.579Z,2.70
2019-02-27T03:33:41.698Z,2.70
2019-02-27T03:36:13.258Z,2.70
2019-02-27T03:38:50.786Z,2.70
2019-02-27T03:41:23.615Z,2.70
2019-02-27T03:44:07.505Z,2.70
2019-02-27T03:46:47.853Z,2.70
2019-02-27T03:49:24.855Z,2.60
2019-02-27T03:52:00.475Z,2.30
2019-02-27T03:54:58.302Z,2.50
2019-02-27T03:57:38.526Z,2.50
2019-02-27T04:00:27.927Z,2.60
2019-02-27T04:03:02.339Z,2.60
2019-02-27T04:05:33.831Z,2.50
2019-02-27T04:08:08.986Z,2.40
2019-02-27T04:10:37.540Z,2.50
2019-02-27T04:13:05.945Z,2.50
2019-02-27T04:15:34.376Z,2.50
2019-02-27T04:18:01.719Z,2.50
2019-02-27T04:20:30.215Z,2.50
2019-02-27T04:22:58.618Z,2.50
2019-02-27T04:25:31.126Z,2.50
2019-02-27T04:27:57.181Z,2.50
2019-02-27T04:30:25.603Z,2.50
2019-02-27T04:32:54.043Z,2.20
2019-02-27T04:35:22.454Z,2.40
2019-02-27T04:37:53.912Z,2.40
2019-02-27T04:40:21.016Z,2.30
2019-02-27T04:42:49.439Z,2.30
2019-02-27T04:45:17.852Z,2.40
2019-02-27T04:47:46.283Z,2.40
2019-02-27T04:50:14.774Z,2.40
2019-02-27T04:52:43.195Z,2.40
2019-02-27T04:55:13.127Z,2.40
2019-02-27T04:57:41.839Z,2.40
2019-02-27T05:00:11.407Z,2.40
2019-02-27T05:02:39.816Z,2.40
2019-02-27T05:05:09.255Z,2.30
2019-02-27T05:07:37.775Z,2.40
2019-02-27T05:10:08.302Z,2.40
2019-02-27T05:12:36.705Z,2.40
2019-02-27T05:15:07.464Z,2.40
2019-02-27T05:17:35.891Z,2.40
2019-02-27T05:20:11.472Z,2.20
2019-02-27T05:22:37.094Z,2.20
2019-02-27T05:25:06.540Z,2.30
2019-02-27T05:27:34.995Z,2.40
2019-02-27T05:30:03.943Z,2.30
2019-02-27T05:32:32.370Z,2.30
2019-02-27T05:35:00.814Z,2.40
2019-02-27T05:37:29.319Z,2.30
2019-02-27T05:39:57.742Z,2.30
2019-02-27T05:42:26.175Z,2.30
2019-02-27T05:44:55.888Z,2.10
2019-02-27T05:47:24.735Z,2.20
2019-02-27T05:49:53.163Z,2.20
2019-02-27T05:52:21.622Z,2.20
2019-02-27T05:54:50.043Z,1.90
2019-02-27T05:57:21.098Z,2.00
2019-02-27T05:59:48.619Z,2.10
2019-02-27T06:02:17.042Z,2.00
2019-02-27T06:04:45.447Z,2.10
2019-02-27T06:07:13.869Z,2.20
2019-02-27T06:09:43.756Z,2.20
2019-02-27T06:12:12.414Z,2.30
2019-02-27T06:14:40.851Z,2.20
2019-02-27T06:17:10.105Z,2.20
2019-02-27T06:19:39.401Z,2.10
2019-02-27T06:22:07.831Z,1.90
2019-02-27T06:24:36.267Z,1.90
2019-02-27T06:27:06.348Z,1.90
2019-02-27T06:29:34.894Z,1.80
2019-02-27T06:32:03.307Z,1.90
2019-02-27T06:34:31.735Z,1.90
2019-02-27T06:37:00.154Z,1.70
2019-02-27T06:39:28.595Z,2.00
2019-02-27T06:41:56.996Z,2.00
2019-02-27T06:44:25.424Z,2.20
2019-02-27T06:46:54.676Z,2.20
2019-02-27T06:49:23.363Z,2.20
2019-02-27T06:51:51.810Z,2.30
2019-02-27T06:54:20.223Z,2.40
2019-02-27T06:56:48.651Z,2.40
2019-02-27T06:59:18.142Z,2.40
2019-02-27T07:01:47.535Z,2.40
2019-02-27T07:04:16.463Z,2.40
2019-02-27T07:06:44.894Z,2.40
2019-02-27T07:09:13.331Z,2.50
2019-02-27T07:11:44.925Z,2.50
2019-02-27T07:14:11.907Z,1.40
2019-02-27T07:16:40.318Z,2.70
2019-02-27T07:19:08.741Z,2.70
2019-02-27T07:21:37.167Z,2.70
2019-02-27T07:24:05.590Z,2.80
2019-02-27T07:26:34.010Z,2.90
2019-02-27T07:29:02.434Z,2.90
2019-02-27T07:31:30.863Z,3.00
2019-02-27T07:33:59.262Z,2.90
2019-02-27T07:36:27.704Z,3.00
2019-02-27T07:38:57.495Z,3.00
2019-02-27T07:41:26.250Z,3.00
2019-02-27T07:43:54.678Z,3.00
2019-02-27T07:46:23.091Z,3.10
2019-02-27T07:48:51.527Z,3.20
2019-02-27T07:51:20.860Z,3.40
2019-02-27T07:53:51.448Z,3.40
2019-02-27T07:56:20.223Z,3.50
2019-02-27T07:58:48.673Z,3.60
2019-02-27T08:01:17.111Z,3.70
2019-02-27T08:03:45.823Z,3.90
2019-02-27T08:06:14.344Z,4.10
2019-02-27T08:08:42.759Z,4.20
2019-02-27T08:11:13.671Z,4.30
2019-02-27T08:13:41.406Z,4.50
2019-02-27T08:16:09.834Z,4.70
2019-02-27T08:18:38.334Z,4.80
2019-02-27T08:21:06.755Z,5.00
2019-02-27T08:23:35.358Z,5.20
2019-02-27T08:26:05.009Z,5.30
2019-02-27T08:28:34.191Z,5.40
2019-02-27T08:31:02.597Z,5.50
2019-02-27T08:33:31.106Z,5.80
2019-02-27T08:35:59.512Z,6.10
2019-02-27T08:38:27.943Z,6.20
2019-02-27T08:40:58.253Z,6.40
2019-02-27T08:43:27.422Z,6.60
2019-02-27T08:45:55.862Z,6.90
2019-02-27T08:48:24.277Z,7.10
2019-02-27T08:50:52.698Z,7.30
2019-02-27T08:53:25.834Z,7.70
2019-02-27T08:55:51.276Z,7.90
2019-02-27T08:58:19.687Z,8.10
2019-02-27T09:00:48.458Z,8.30
2019-02-27T09:03:20.286Z,8.30
2019-02-27T09:05:47.103Z,8.40
2019-02-27T09:08:15.518Z,8.50
2019-02-27T09:10:43.947Z,8.40
2019-02-27T09:13:12.366Z,8.40
2019-02-27T09:15:41.728Z,8.40
2019-02-27T09:18:10.283Z,8.60
2019-02-27T09:20:38.703Z,8.80
2019-02-27T09:23:07.640Z,9.10
2019-02-27T09:25:36.163Z,9.80
2019-02-27T09:28:08.921Z,10.30
2019-02-27T09:30:34.995Z,10.70
2019-02-27T09:33:03.429Z,10.90
2019-02-27T09:35:34.592Z,11.10
2019-02-27T09:38:02.025Z,11.80
2019-02-27T09:40:30.571Z,12.20
2019-02-27T09:42:59.171Z,12.40
2019-02-27T09:45:36.778Z,12.50
2019-02-27T09:48:05.611Z,12.50
2019-02-27T09:50:37.110Z,12.50
2019-02-27T09:53:05.783Z,12.50
2019-02-27T09:55:34.498Z,12.50
2019-02-27T09:58:03.167Z,12.60
2019-02-27T10:00:33.728Z,12.60
2019-02-27T10:03:02.269Z,13.00
2019-02-27T10:05:31.020Z,13.40
2019-02-27T10:07:59.449Z,13.50
2019-02-27T10:10:27.957Z,13.50
2019-02-27T10:12:56.405Z,13.50
2019-02-27T10:15:25.792Z,13.50
2019-02-27T10:17:54.450Z,13.40
2019-02-27T10:20:22.948Z,13.50
2019-02-27T10:22:53.182Z,13.60
2019-02-27T10:25:21.887Z,13.70
2019-02-27T10:27:50.451Z,13.70
2019-02-27T10:30:19.022Z,13.60
2019-02-27T10:32:47.503Z,13.70
2019-02-27T10:35:16.575Z,13.80
2019-02-27T10:37:50.239Z,14.00
2019-02-27T10:40:26.064Z,14.10
2019-02-27T10:42:54.569Z,14.20
2019-02-27T10:45:22.987Z,14.40
2019-02-27T10:47:51.418Z,14.60
2019-02-27T10:50:19.919Z,14.70
2019-02-27T10:52:50.012Z,14.80
2019-02-27T10:55:19.425Z,15.00
2019-02-27T10:57:47.935Z,15.30
2019-02-27T11:00:33.678Z,15.50
2019-02-27T11:03:02.642Z,15.70
2019-02-27T11:05:36.066Z,15.80
2019-02-27T11:08:04.546Z,16.00
2019-02-27T11:10:32.990Z,16.30
2019-02-27T11:13:05.427Z,16.40
2019-02-27T11:15:31.555Z,16.60
2019-02-27T11:18:04.225Z,16.60
2019-02-27T11:20:30.267Z,16.60
2019-02-27T11:22:58.754Z,16.60
2019-02-27T11:25:29.401Z,16.70
2019-02-27T11:27:57.823Z,16.70
2019-02-27T11:30:37.577Z,16.70
2019-02-27T11:33:06.759Z,16.80
2019-02-27T11:35:35.167Z,16.80
2019-02-27T11:38:03.682Z,16.90
2019-02-27T11:40:32.165Z,17.00
2019-02-27T11:43:01.207Z,17.10
2019-02-27T11:45:30.002Z,17.00
2019-02-27T11:47:58.432Z,17.00
2019-02-27T11:50:26.953Z,17.10
2019-02-27T11:52:55.522Z,17.00
2019-02-27T11:55:24.632Z,17.00
2019-02-27T11:57:53.266Z,17.00
2019-02-27T12:00:27.130Z,16.90
2019-02-27T12:02:56.114Z,17.00
2019-02-27T12:05:30.815Z,17.10
2019-02-27T12:07:55.498Z,17.40
2019-02-27T12:10:30.708Z,17.70
2019-02-27T12:13:00.800Z,18.50
2019-02-27T12:15:29.784Z,19.40
2019-02-27T12:18:00.551Z,19.10
2019-02-27T12:20:28.534Z,18.60
2019-02-27T12:22:56.981Z,18.30
2019-02-27T12:25:28.091Z,18.10
2019-02-27T12:27:56.467Z,18.10
2019-02-27T12:30:26.839Z,17.60
2019-02-27T12:32:56.740Z,17.30
2019-02-27T12:35:31.747Z,17.20
2019-02-27T12:38:00.309Z,17.00
2019-02-27T12:40:28.827Z,17.00
2019-02-27T12:42:57.395Z,16.90
2019-02-27T12:45:30.075Z,16.80
2019-02-27T12:47:58.606Z,16.80
2019-02-27T12:50:31.142Z,16.90
2019-02-27T12:52:58.731Z,16.80
2019-02-27T12:55:27.505Z,16.80
2019-02-27T12:57:55.914Z,16.90
2019-02-27T13:00:29.382Z,17.00
2019-02-27T13:02:59.059Z,17.00
2019-02-27T13:05:28.492Z,17.30
2019-02-27T13:07:57.050Z,17.40
2019-02-27T13:10:26.626Z,17.60
2019-02-27T13:12:55.110Z,17.60
2019-02-27T13:15:26.617Z,18.10
2019-02-27T13:17:57.407Z,18.80
2019-02-27T13:20:33.932Z,18.50
2019-02-27T13:23:05.093Z,18.30
2019-02-27T13:25:32.622Z,18.00
2019-02-27T13:28:01.059Z,17.60
2019-02-27T13:30:29.541Z,17.60
2019-02-27T13:33:00.688Z,17.40
2019-02-27T13:35:28.879Z,17.20
2019-02-27T13:37:57.750Z,17.20
2019-02-27T13:40:28.482Z,17.10
2019-02-27T13:42:56.909Z,17.10
2019-02-27T13:45:27.643Z,17.00
2019-02-27T13:47:56.377Z,16.90
2019-02-27T13:50:26.879Z,17.00
2019-02-27T13:52:55.270Z,17.00
2019-02-27T13:55:24.135Z,17.00
2019-02-27T13:57:52.650Z,17.10
2019-02-27T14:00:25.775Z,17.20
2019-02-27T14:02:54.156Z,17.30
2019-02-27T14:05:22.646Z,17.20
2019-02-27T14:07:51.186Z,17.10
2019-02-27T14:10:28.244Z,17.10
2019-02-27T14:12:56.689Z,17.00
2019-02-27T14:15:27.297Z,17.00
2019-02-27T14:17:55.504Z,17.00
2019-02-27T14:20:27.133Z,16.90
2019-02-27T14:22:54.761Z,16.90
2019-02-27T14:25:32.893Z,16.90
2019-02-27T14:28:01.077Z,16.90
2019-02-27T14:30:41.874Z,16.80
2019-02-27T14:33:10.987Z,16.80
2019-02-27T14:35:39.749Z,16.80
2019-02-27T14:38:08.306Z,16.80
2019-02-27T14:40:40.018Z,16.80
2019-02-27T14:43:07.426Z,16.90
2019-02-27T14:45:39.594Z,16.80
2019-02-27T14:48:06.314Z,16.70
2019-02-27T14:50:34.904Z,16.80
2019-02-27T14:53:03.675Z,16.70
2019-02-27T14:55:32.175Z,16.70
2019-02-27T14:58:00.603Z,16.70
2019-02-27T15:00:34.133Z,16.70
2019-02-27T15:03:02.634Z,16.70
2019-02-27T15:05:31.362Z,16.70
2019-02-27T15:07:59.790Z,16.70
2019-02-27T15:10:28.216Z,16.60
2019-02-27T15:12:56.666Z,16.50
2019-02-27T15:15:30.253Z,16.40
2019-02-27T15:17:58.924Z,16.50
2019-02-27T15:20:28.786Z,16.50
2019-02-27T15:22:57.360Z,16.50
2019-02-27T15:25:27.658Z,16.40
2019-02-27T15:27:58.714Z,16.40
2019-02-27T15:30:31.554Z,16.40
2019-02-27T15:33:03.824Z,16.30
2019-02-27T15:35:30.144Z,16.20
2019-02-27T15:37:58.696Z,16.10
2019-02-27T15:40:30.149Z,16.00
2019-02-27T15:42:59.093Z,16.00
2019-02-27T15:45:28.560Z,16.00
2019-02-27T15:47:57.116Z,15.90
2019-02-27T15:50:33.218Z,15.80
2019-02-27T15:53:01.645Z,15.60
2019-02-27T15:55:33.067Z,15.60
2019-02-27T15:58:00.225Z,15.60
2019-02-27T16:00:29.147Z,15.40
2019-02-27T16:02:58.235Z,15.40
2019-02-27T16:05:30.214Z,15.40
2019-02-27T16:07:56.901Z,15.20
2019-02-27T16:10:28.862Z,15.10
2019-02-27T16:13:01.068Z,14.90
2019-02-27T16:15:27.505Z,15.00
2019-02-27T16:17:55.927Z,15.00
2019-02-27T16:20:28.380Z,14.90
2019-02-27T16:22:56.817Z,14.80
2019-02-27T16:25:26.471Z,14.70
2019-02-27T16:27:54.889Z,14.60
2019-02-27T16:30:31.125Z,14.50
2019-02-27T16:32:56.638Z,14.30
2019-02-27T16:35:25.164Z,14.20
2019-02-27T16:37:57.598Z,14.00
2019-02-27T16:40:28.557Z,13.90
2019-02-27T16:42:57.212Z,13.70
2019-02-27T16:45:32.288Z,13.70
2019-02-27T16:47:59.502Z,13.50
2019-02-27T16:50:28.336Z,13.40
2019-02-27T16:52:57.113Z,13.40
2019-02-27T16:55:26.846Z,13.30
2019-02-27T16:57:57.440Z,13.20
2019-02-27T17:00:28.657Z,13.10
2019-02-27T17:02:57.257Z,12.90
2019-02-27T17:05:25.826Z,12.70
2019-02-27T17:07:57.344Z,12.50
2019-02-27T17:10:32.643Z,12.30
2019-02-27T17:13:01.089Z,12.20
2019-02-27T17:15:34.552Z,12.20
2019-02-27T17:17:59.871Z,12.20
2019-02-27T17:20:28.746Z,12.10
2019-02-27T17:22:57.330Z,11.90
2019-02-27T17:25:28.918Z,11.80
2019-02-27T17:27:56.025Z,11.40
2019-02-27T17:30:38.160Z,11.10
2019-02-27T17:33:06.829Z,11.00
2019-02-27T17:35:35.360Z,10.60
2019-02-27T17:38:03.844Z,10.50
2019-02-27T17:40:36.281Z,10.40
2019-02-27T17:43:02.632Z,10.30
2019-02-27T17:45:31.065Z,10.60
2019-02-27T17:47:59.490Z,10.50
2019-02-27T17:50:31.245Z,10.50
2019-02-27T17:52:58.174Z,10.40
2019-02-27T17:55:26.705Z,10.30
2019-02-27T17:57:57.751Z,9.90
2019-02-27T18:00:32.220Z,9.80
2019-02-27T18:03:00.708Z,9.70
2019-02-27T18:05:29.184Z,9.80
2019-02-27T18:07:57.634Z,9.90
2019-02-27T18:10:26.092Z,9.90
2019-02-27T18:12:54.554Z,10.00
2019-02-27T18:15:24.318Z,9.70
2019-02-27T18:17:52.839Z,9.60
2019-02-27T18:20:24.912Z,9.60
2019-02-27T18:22:51.913Z,9.40
2019-02-27T18:25:20.611Z,9.20
2019-02-27T18:27:49.189Z,9.30
2019-02-27T18:30:26.758Z,9.50
2019-02-27T18:32:55.287Z,9.50
2019-02-27T18:35:28.480Z,9.60
2019-02-27T18:37:54.552Z,9.10
2019-02-27T18:40:23.577Z,9.10
2019-02-27T18:42:55.157Z,8.90
2019-02-27T18:45:27.214Z,9.00
2019-02-27T18:47:55.643Z,8.70
2019-02-27T18:50:24.860Z,8.70
2019-02-27T18:52:54.290Z,8.70
2019-02-27T18:55:22.736Z,8.90
2019-02-27T18:57:51.318Z,8.70
2019-02-27T19:00:27.010Z,8.80
2019-02-27T19:03:07.073Z,8.80
2019-02-27T19:05:38.154Z,8.70
2019-02-27T19:08:05.862Z,8.50
2019-02-27T19:10:34.541Z,8.40
2019-02-27T19:13:03.168Z,8.60
2019-02-27T19:15:31.886Z,8.90
2019-02-27T19:18:00.392Z,9.10
2019-02-27T19:20:43.732Z,9.20
2019-02-27T19:23:17.284Z,9.30
2019-02-27T19:25:43.031Z,9.40
2019-02-27T19:28:11.584Z,9.40
2019-02-27T19:30:41.650Z,9.40
2019-02-27T19:33:10.326Z,9.30
2019-02-27T19:35:38.801Z,9.20
2019-02-27T19:38:12.490Z,9.20
2019-02-27T19:40:37.532Z,9.10
2019-02-27T19:43:06.529Z,8.90
2019-02-27T19:45:35.913Z,8.80
2019-02-27T19:48:05.237Z,8.80
2019-02-27T19:50:33.651Z,8.70
2019-02-27T19:53:05.332Z,8.60
2019-02-27T19:55:32.484Z,8.70
2019-02-27T19:58:00.970Z,8.60
2019-02-27T20:00:35.091Z,8.60
2019-02-27T20:03:01.699Z,8.70
2019-02-27T20:05:30.695Z,8.80
2019-02-27T20:07:59.648Z,8.70
2019-02-27T20:10:30.903Z,8.70
2019-02-27T20:12:58.893Z,8.70
2019-02-27T20:15:27.702Z,8.60
2019-02-27T20:17:56.375Z,8.40
2019-02-27T20:20:25.627Z,8.10
2019-02-27T20:22:55.282Z,8.30
2019-02-27T20:25:28.626Z,8.30
2019-02-27T20:27:58.696Z,7.90
2019-02-27T20:30:27.598Z,7.70
2019-02-27T20:32:56.263Z,7.70
2019-02-27T20:35:24.766Z,7.60
2019-02-27T20:37:53.181Z,7.50
2019-02-27T20:40:22.685Z,7.60
2019-02-27T20:42:54.909Z,7.80
2019-02-27T20:45:22.869Z,8.30
2019-02-27T20:47:57.666Z,8.60
2019-02-27T20:50:35.309Z,8.70
2019-02-27T20:53:05.014Z,8.70
2019-02-27T20:55:33.512Z,8.70
2019-02-27T20:58:02.077Z,8.80
2019-02-27T21:00:36.086Z,8.70
2019-02-27T21:03:02.564Z,8.80
2019-02-27T21:05:30.998Z,8.80
2019-02-27T21:08:01.949Z,8.80
2019-02-27T21:10:31.108Z,8.70
2019-02-27T21:12:59.535Z,8.50
2019-02-27T21:15:29.292Z,8.50
2019-02-27T21:17:58.849Z,8.40
2019-02-27T21:20:27.579Z,8.50
2019-02-27T21:22:55.993Z,8.30
2019-02-27T21:25:24.468Z,8.00
2019-02-27T21:27:52.966Z,8.00
2019-02-27T21:30:23.570Z,8.10
2019-02-27T21:32:52.130Z,8.20
2019-02-27T21:35:20.784Z,8.10
2019-02-27T21:37:50.951Z,8.00
2019-02-27T21:40:20.123Z,7.90
2019-02-27T21:42:50.725Z,7.80
2019-02-27T21:45:21.406Z,7.80
2019-02-27T21:47:51.819Z,7.40
2019-02-27T21:50:23.069Z,7.40
2019-02-27T21:52:54.321Z,7.40
2019-02-27T21:55:21.760Z,7.50
2019-02-27T21:57:50.247Z,7.30
2019-02-27T22:00:22.474Z,7.50
2019-02-27T22:02:51.334Z,7.50
2019-02-27T22:05:20.215Z,7.50
2019-02-27T22:07:48.963Z,7.40
2019-02-27T22:10:19.550Z,7.20
2019-02-27T22:12:48.147Z,7.10
2019-02-27T22:15:27.900Z,6.80
2019-02-27T22:17:56.296Z,6.80
2019-02-27T22:20:25.927Z,6.70
2019-02-27T22:22:54.978Z,6.70
2019-02-27T22:25:23.392Z,6.60
2019-02-27T22:27:51.962Z,6.80
2019-02-27T22:30:21.407Z,6.80
2019-02-27T22:32:49.892Z,6.80
2019-02-27T22:35:18.500Z,6.90
2019-02-27T22:37:51.032Z,6.70
2019-02-27T22:40:19.932Z,6.90
2019-02-27T22:42:49.232Z,7.20
2019-02-27T22:45:19.059Z,6.90
2019-02-27T22:47:48.104Z,7.10
2019-02-27T22:50:18.851Z,7.20
2019-02-27T22:52:47.330Z,7.10
2019-02-27T22:55:15.775Z,7.10
2019-02-27T22:57:44.258Z,7.30
2019-02-27T23:00:42.972Z,7.10
2019-02-27T23:03:10.296Z,6.90
2019-02-27T23:05:39.113Z,7.00
2019-02-27T23:08:07.890Z,6.60
2019-02-27T23:10:36.334Z,6.50
2019-02-27T23:13:04.815Z,6.70
2019-02-27T23:15:33.267Z,6.70
2019-02-27T23:18:02.507Z,6.60
2019-02-27T23:20:32.218Z,6.80
2019-02-27T23:23:02.612Z,7.00
2019-02-27T23:25:30.938Z,7.10
2019-02-27T23:28:00.944Z,7.20
2019-02-27T23:30:29.578Z,7.30
2019-02-27T23:32:59.446Z,7.50
2019-02-27T23:35:28.178Z,7.50
2019-02-27T23:37:56.590Z,7.70
2019-02-27T23:40:25.002Z,7.90
2019-02-27T23:42:53.430Z,7.90
2019-02-27T23:45:21.874Z,7.90
2019-02-27T23:47:50.292Z,8.00
2019-02-27T23:50:18.730Z,8.20
2019-02-27T23:52:47.174Z,8.20
2019-02-27T23:55:18.043Z,8.20
2019-02-27T23:57:47.172Z,8.10
